Live Oak, California
Current Conditions -  °F | °C
As of 6:53 PM on Saturday 20 Dec 2014 (Local Time) from KMYV Reporting Station
Light Rain Light Rain  
Wind Chill: 55°   Ceiling: 2800
Heat Index: 55°   Visibility: 5mi
Dew Point: 53°   Wind: 10mph
Humidity: 93%   Direction: 130°SE
Pressure: 30.23"   Gusts: NA
Location:  39.28°N, 121.66°W
Report Text: KMYV 210253Z AUTO 13009KT 5SM -RA BR OVC028 13/12 A3023 RMK AO2 SLP240 P0003 60004 T01280117 51006
Loading
Personal Weather Stations






























Interactive Weather Map New forecast layout! Learn more

10-Day Weather Forecast

Advertisements
Track Severe Weather on mobile